createdAt,value
2022-09-06T00:01:49.092Z,0.95
2022-09-06T00:04:16.491Z,0.80
2022-09-06T00:06:43.974Z,1.02
2022-09-06T00:09:12.793Z,0.98
2022-09-06T00:11:40.515Z,1.10
2022-09-06T00:14:07.876Z,1.08
2022-09-06T00:16:35.486Z,0.98
2022-09-06T00:19:02.943Z,0.90
2022-09-06T00:21:31.718Z,0.75
2022-09-06T00:23:59.288Z,1.05
2022-09-06T00:26:27.975Z,0.98
2022-09-06T00:28:55.347Z,0.90
2022-09-06T00:31:23.533Z,0.80
2022-09-06T00:33:51.185Z,0.75
2022-09-06T00:36:18.930Z,0.73
2022-09-06T00:38:46.319Z,0.90
2022-09-06T00:41:15.651Z,0.80
2022-09-06T00:43:44.639Z,0.90
2022-09-06T00:46:16.077Z,0.70
2022-09-06T00:48:44.067Z,0.70
2022-09-06T00:51:12.310Z,1.05
2022-09-06T00:53:39.796Z,1.00
2022-09-06T00:56:07.456Z,0.90
2022-09-06T00:58:35.254Z,0.80
2022-09-06T01:01:03.971Z,0.90
2022-09-06T01:03:31.789Z,0.90
2022-09-06T01:06:03.670Z,0.73
2022-09-06T01:08:34.439Z,0.82
2022-09-06T01:11:16.708Z,0.93
2022-09-06T01:13:49.126Z,0.80
2022-09-06T01:16:23.737Z,0.77
2022-09-06T01:18:58.811Z,0.80
2022-09-06T01:21:32.659Z,0.90
2022-09-06T01:24:15.706Z,0.90
2022-09-06T01:27:04.950Z,0.80
2022-09-06T01:29:36.063Z,0.85
2022-09-06T01:32:06.087Z,1.27
2022-09-06T01:34:36.377Z,0.60
2022-09-06T01:37:10.213Z,1.30
2022-09-06T01:39:39.362Z,1.17
2022-09-06T01:42:08.706Z,0.50
2022-09-06T01:44:38.872Z,0.68
2022-09-06T01:47:10.586Z,0.70
2022-09-06T01:49:41.998Z,0.77
2022-09-06T01:52:13.036Z,0.70
2022-09-06T01:54:48.256Z,0.65
2022-09-06T01:57:21.019Z,0.80
2022-09-06T02:00:02.739Z,0.77
2022-09-06T02:02:36.603Z,0.60
2022-09-06T02:05:05.865Z,0.77
2022-09-06T02:07:34.698Z,0.70
2022-09-06T02:10:06.615Z,0.80
2022-09-06T02:12:36.520Z,0.80
2022-09-06T02:15:07.616Z,0.70
2022-09-06T02:17:36.376Z,0.70
2022-09-06T02:20:06.274Z,0.70
2022-09-06T02:22:36.025Z,0.60
2022-09-06T02:25:03.803Z,0.70
2022-09-06T02:27:31.309Z,0.80
2022-09-06T02:29:58.771Z,0.70
2022-09-06T02:32:29.251Z,0.90
2022-09-06T02:34:57.724Z,0.63
2022-09-06T02:37:26.025Z,0.90
2022-09-06T02:39:54.159Z,0.77
2022-09-06T02:42:22.259Z,0.82
2022-09-06T02:44:49.654Z,0.70
2022-09-06T02:47:17.220Z,0.77
2022-09-06T02:49:45.931Z,0.80
2022-09-06T02:52:13.359Z,0.80
2022-09-06T02:54:40.763Z,0.68
2022-09-06T02:57:08.121Z,0.82
2022-09-06T02:59:36.107Z,0.88
2022-09-06T03:02:03.563Z,1.00
2022-09-06T03:04:31.584Z,0.50
2022-09-06T03:07:00.387Z,0.85
2022-09-06T03:09:27.789Z,0.60
2022-09-06T03:11:55.207Z,0.60
2022-09-06T03:14:22.798Z,0.63
2022-09-06T03:16:50.280Z,0.73
2022-09-06T03:19:18.007Z,1.10
2022-09-06T03:21:45.346Z,0.70
2022-09-06T03:24:14.097Z,0.90
2022-09-06T03:26:41.508Z,0.70
2022-09-06T03:29:08.886Z,0.60
2022-09-06T03:31:36.270Z,0.60
2022-09-06T03:34:04.700Z,0.73
2022-09-06T03:36:34.423Z,0.90
2022-09-06T03:39:01.794Z,1.20
2022-09-06T03:41:30.562Z,1.10
2022-09-06T03:43:57.961Z,0.80
2022-09-06T03:46:25.400Z,0.98
2022-09-06T03:48:52.870Z,0.85
2022-09-06T03:51:20.992Z,0.75
2022-09-06T03:53:48.502Z,0.77
2022-09-06T03:56:15.855Z,0.85
2022-09-06T03:58:44.568Z,0.85
2022-09-06T04:01:12.978Z,2.10
2022-09-06T04:03:40.752Z,1.42
2022-09-06T04:06:08.708Z,0.93
2022-09-06T04:08:36.534Z,1.33
2022-09-06T04:11:04.205Z,0.80
2022-09-06T04:13:32.585Z,1.10
2022-09-06T04:16:01.330Z,0.85
2022-09-06T04:18:29.182Z,0.70
2022-09-06T04:20:57.151Z,1.00
2022-09-06T04:23:25.056Z,0.75
2022-09-06T04:25:53.195Z,1.05
2022-09-06T04:28:20.935Z,1.27
2022-09-06T04:30:52.825Z,0.90
2022-09-06T04:33:21.589Z,1.00
2022-09-06T04:35:49.542Z,1.00
2022-09-06T04:38:17.272Z,0.93
2022-09-06T04:40:44.682Z,1.10
2022-09-06T04:43:12.294Z,0.98
2022-09-06T04:45:39.771Z,0.93
2022-09-06T04:48:07.175Z,0.70
2022-09-06T04:50:35.898Z,1.00
2022-09-06T04:53:03.401Z,1.05
2022-09-06T04:55:31.341Z,0.98
2022-09-06T04:58:00.012Z,0.90
2022-09-06T05:00:27.487Z,0.80
2022-09-06T05:02:54.879Z,1.10
2022-09-06T05:05:23.262Z,1.08
2022-09-06T05:07:54.031Z,1.00
2022-09-06T05:12:49.592Z,1.00
2022-09-06T05:15:17.805Z,1.17
2022-09-06T05:17:45.180Z,1.00
2022-09-06T05:20:13.180Z,0.82
2022-09-06T05:22:40.951Z,0.90
2022-09-06T05:25:10.582Z,0.90
2022-09-06T05:27:38.011Z,0.82
2022-09-06T05:30:05.660Z,0.90
2022-09-06T05:32:33.009Z,1.05
2022-09-06T05:35:00.411Z,1.20
2022-09-06T05:37:27.832Z,0.95
2022-09-06T05:39:55.399Z,0.93
2022-09-06T05:42:24.259Z,1.20
2022-09-06T05:44:51.687Z,1.27
2022-09-06T05:47:19.057Z,1.08
2022-09-06T05:49:47.187Z,0.88
2022-09-06T05:52:14.620Z,0.90
2022-09-06T05:54:42.041Z,0.90
2022-09-06T05:57:09.429Z,0.93
2022-09-06T05:59:38.164Z,0.90
2022-09-06T06:02:07.457Z,0.95
2022-09-06T06:04:35.210Z,0.95
2022-09-06T06:07:02.906Z,0.85
2022-09-06T06:09:30.363Z,1.00
2022-09-06T06:11:57.758Z,0.90
2022-09-06T06:14:25.140Z,0.90
2022-09-06T06:16:53.934Z,1.55
2022-09-06T06:19:21.411Z,0.90
2022-09-06T06:21:48.789Z,0.77
2022-09-06T06:24:16.195Z,0.90
2022-09-06T06:26:43.595Z,1.00
2022-09-06T06:29:11.157Z,0.90
2022-09-06T06:31:39.500Z,1.02
2022-09-06T06:34:08.428Z,0.90
2022-09-06T06:36:36.458Z,0.77
2022-09-06T06:39:05.130Z,0.93
2022-09-06T06:41:33.332Z,0.90
2022-09-06T06:44:01.823Z,1.10
2022-09-06T06:46:29.826Z,1.00
2022-09-06T06:48:57.258Z,0.90
2022-09-06T06:51:26.693Z,1.10
2022-09-06T06:53:54.164Z,0.70
2022-09-06T06:56:22.225Z,1.00
2022-09-06T06:58:50.607Z,0.90
2022-09-06T07:01:18.618Z,0.80
2022-09-06T07:03:46.630Z,0.88
2022-09-06T07:06:14.516Z,1.17
2022-09-06T07:08:43.602Z,0.80
2022-09-06T07:11:12.178Z,1.00
2022-09-06T07:13:39.611Z,1.00
2022-09-06T07:16:08.176Z,0.95
2022-09-06T07:18:35.571Z,1.13
2022-09-06T07:24:07.917Z,0.90
2022-09-06T07:26:37.613Z,1.67
2022-09-06T07:29:05.702Z,0.98
2022-09-06T07:34:20.931Z,1.10
2022-09-06T07:36:48.544Z,0.88
2022-09-06T07:39:17.450Z,0.98
2022-09-06T07:41:44.851Z,1.00
2022-09-06T07:44:12.259Z,1.13
2022-09-06T07:46:39.909Z,1.27
2022-09-06T07:49:07.721Z,1.10
2022-09-06T07:51:35.298Z,1.33
2022-09-06T07:54:26.227Z,1.15
2022-09-06T07:56:51.452Z,1.15
2022-09-06T07:59:18.859Z,1.15
2022-09-06T08:01:47.746Z,1.08
2022-09-06T08:04:15.314Z,1.10
2022-09-06T08:09:30.889Z,1.60
2022-09-06T08:11:59.765Z,1.30
2022-09-06T08:14:27.194Z,1.70
2022-09-06T08:16:54.581Z,1.25
2022-09-06T08:19:21.950Z,1.30
2022-09-06T08:21:49.653Z,1.23
2022-09-06T08:24:17.188Z,1.50
2022-09-06T08:26:44.590Z,1.40
2022-09-06T08:29:13.705Z,1.40
2022-09-06T08:31:41.867Z,1.23
2022-09-06T08:34:09.360Z,1.25
2022-09-06T08:36:37.093Z,1.38
2022-09-06T08:39:05.343Z,1.20
2022-09-06T08:41:34.364Z,1.27
2022-09-06T08:46:56.761Z,1.40
2022-09-06T08:49:25.293Z,1.60
2022-09-06T08:51:57.180Z,1.63
2022-09-06T08:54:27.879Z,1.20
2022-09-06T08:57:02.680Z,1.67
2022-09-06T08:59:31.232Z,1.70
2022-09-06T09:02:03.024Z,1.65
2022-09-06T09:04:31.447Z,1.40
2022-09-06T09:07:00.212Z,1.48
2022-09-06T09:09:28.426Z,1.50
2022-09-06T09:11:56.073Z,1.40
2022-09-06T09:14:25.291Z,1.65
2022-09-06T09:16:53.561Z,1.55
2022-09-06T09:19:22.336Z,1.50
2022-09-06T09:21:49.761Z,1.45
2022-09-06T09:24:17.174Z,1.75
2022-09-06T09:26:48.040Z,1.45
2022-09-06T09:29:15.732Z,1.95
2022-09-06T09:31:44.053Z,1.90
2022-09-06T09:34:12.580Z,1.60
2022-09-06T09:36:41.463Z,1.70
2022-09-06T09:39:12.041Z,1.70
2022-09-06T09:41:41.843Z,1.75
2022-09-06T09:44:10.864Z,1.70
2022-09-06T09:46:39.555Z,1.98
2022-09-06T09:49:08.492Z,1.90
2022-09-06T09:51:36.830Z,1.60
2022-09-06T09:54:06.266Z,2.00
2022-09-06T09:56:35.393Z,2.00
2022-09-06T09:59:03.637Z,1.77
2022-09-06T10:01:32.998Z,1.92
2022-09-06T10:09:36.707Z,1.70
2022-09-06T10:12:04.863Z,1.98
2022-09-06T10:14:33.771Z,1.73
2022-09-06T10:17:01.297Z,1.80
2022-09-06T10:19:47.319Z,1.70
2022-09-06T10:22:32.739Z,1.90
2022-09-06T10:25:10.148Z,1.70
2022-09-06T10:27:55.438Z,1.95
2022-09-06T10:30:30.699Z,1.70
2022-09-06T10:33:01.272Z,2.03
2022-09-06T10:35:32.050Z,1.80
2022-09-06T10:38:13.267Z,1.90
2022-09-06T10:40:47.036Z,2.00
2022-09-06T10:43:18.318Z,1.70
2022-09-06T10:45:47.037Z,1.67
2022-09-06T10:48:17.610Z,2.03
2022-09-06T10:50:48.823Z,2.58
2022-09-06T10:53:19.966Z,2.03
2022-09-06T10:55:50.485Z,1.98
2022-09-06T10:58:23.279Z,1.80
2022-09-06T11:00:51.992Z,1.80
2022-09-06T11:06:11.352Z,1.77
2022-09-06T11:11:17.184Z,1.75
2022-09-06T11:13:44.591Z,2.08
2022-09-06T11:16:16.132Z,1.70
2022-09-06T11:18:45.655Z,1.60
2022-09-06T11:21:20.115Z,1.80
2022-09-06T11:23:49.232Z,1.73
2022-09-06T11:26:28.943Z,1.90
2022-09-06T11:28:57.765Z,1.85
2022-09-06T11:34:20.173Z,2.00
2022-09-06T11:36:48.477Z,1.88
2022-09-06T11:42:36.342Z,1.77
2022-09-06T11:45:22.184Z,2.00
2022-09-06T11:47:50.222Z,1.85
2022-09-06T11:50:47.132Z,1.95
2022-09-06T11:53:18.182Z,2.00
2022-09-06T11:55:46.819Z,1.85
2022-09-06T11:58:24.586Z,2.00
2022-09-06T12:01:06.876Z,2.20
2022-09-06T12:04:09.699Z,2.00
2022-09-06T12:06:40.579Z,1.90
2022-09-06T12:09:22.843Z,1.88
2022-09-06T12:11:52.164Z,2.17
2022-09-06T12:14:30.176Z,2.10
2022-09-06T12:17:28.004Z,2.00
2022-09-06T12:20:06.557Z,2.03
2022-09-06T12:23:04.420Z,1.90
2022-09-06T12:25:53.719Z,2.08
2022-09-06T12:28:25.162Z,2.00
2022-09-06T12:30:54.081Z,2.40
2022-09-06T12:33:25.478Z,2.40
2022-09-06T12:35:56.262Z,2.28
2022-09-06T12:38:25.052Z,1.92
2022-09-06T12:40:56.709Z,2.00
2022-09-06T12:43:24.078Z,1.90
2022-09-06T12:45:52.375Z,2.05
2022-09-06T12:48:29.016Z,2.33
2022-09-06T12:51:03.636Z,2.00
2022-09-06T12:53:31.678Z,1.83
2022-09-06T12:56:06.158Z,2.20
2022-09-06T12:58:33.666Z,2.10
2022-09-06T13:01:04.053Z,1.77
2022-09-06T13:03:36.409Z,1.90
2022-09-06T13:06:06.040Z,2.10
2022-09-06T13:08:35.503Z,1.80
2022-09-06T13:11:04.844Z,2.00
2022-09-06T13:13:32.237Z,2.03
2022-09-06T13:15:59.741Z,1.98
2022-09-06T13:18:35.380Z,2.15
2022-09-06T13:21:04.092Z,2.13
2022-09-06T13:23:41.043Z,1.98
2022-09-06T13:26:08.435Z,1.88
2022-09-06T13:28:36.050Z,2.25
2022-09-06T13:31:05.104Z,2.00
2022-09-06T14:15:54.845Z,2.20
2022-09-06T14:18:23.030Z,2.00
2022-09-06T14:20:53.238Z,2.40
2022-09-06T14:23:23.579Z,2.75
2022-09-06T14:25:56.127Z,2.30
2022-09-06T14:28:23.822Z,2.08
2022-09-06T14:30:51.929Z,2.22
2022-09-06T14:33:19.415Z,2.25
2022-09-06T14:35:46.746Z,2.00
2022-09-06T14:38:14.150Z,1.98
2022-09-06T14:40:44.089Z,2.13
2022-09-06T14:43:11.558Z,2.30
2022-09-06T14:45:38.954Z,2.03
2022-09-06T14:48:07.110Z,2.03
2022-09-06T14:50:34.519Z,1.88
2022-09-06T14:53:01.986Z,2.22
2022-09-06T14:55:30.034Z,2.13
2022-09-06T14:57:59.911Z,2.10
2022-09-06T15:00:27.378Z,2.38
2022-09-06T15:02:56.016Z,2.30
2022-09-06T15:05:23.699Z,1.92
2022-09-06T15:07:51.176Z,2.03
2022-09-06T15:10:19.343Z,2.40
2022-09-06T15:12:46.754Z,2.15
2022-09-06T15:15:15.590Z,2.15
2022-09-06T15:17:43.063Z,2.10
2022-09-06T15:20:11.003Z,1.83
2022-09-06T15:22:38.760Z,1.90
2022-09-06T15:25:06.625Z,1.95
2022-09-06T15:27:34.050Z,2.05
2022-09-06T15:30:01.503Z,1.92
2022-09-06T15:32:30.371Z,2.13
2022-09-06T15:35:02.464Z,2.20
2022-09-06T15:37:31.835Z,2.08
2022-09-06T15:39:59.859Z,2.28
2022-09-06T15:42:27.314Z,2.20
2022-09-06T15:44:55.232Z,2.00
2022-09-06T15:47:22.660Z,2.20
2022-09-06T15:49:51.552Z,2.10
2022-09-06T15:52:19.191Z,2.10
2022-09-06T15:55:04.124Z,2.38
2022-09-06T15:57:31.571Z,2.20
2022-09-06T15:59:58.949Z,2.28
2022-09-06T16:02:26.480Z,2.30
2022-09-06T16:04:55.643Z,2.50
2022-09-06T16:07:23.931Z,2.08
2022-09-06T16:09:51.371Z,2.17
2022-09-06T16:12:18.794Z,2.40
2022-09-06T16:14:46.223Z,2.42
2022-09-06T16:17:13.617Z,2.60
2022-09-06T16:19:41.003Z,2.20
2022-09-06T16:22:10.337Z,2.67
2022-09-06T16:24:37.784Z,2.17
2022-09-06T16:27:05.277Z,2.20
2022-09-06T16:29:32.889Z,2.67
2022-09-06T16:32:00.601Z,2.33
2022-09-06T16:34:28.539Z,2.40
2022-09-06T16:36:56.949Z,2.03
2022-09-06T16:39:25.916Z,2.33
2022-09-06T16:41:53.343Z,2.03
2022-09-06T16:44:20.768Z,1.95
2022-09-06T16:46:49.254Z,2.03
2022-09-06T16:49:17.385Z,2.58
2022-09-06T16:51:45.640Z,2.10
2022-09-06T16:54:13.841Z,2.10
2022-09-06T16:56:42.686Z,2.67
2022-09-06T16:59:10.639Z,2.20
2022-09-06T17:01:41.334Z,2.20
2022-09-06T17:04:09.565Z,2.28
2022-09-06T17:06:43.977Z,2.33
2022-09-06T17:09:11.437Z,2.15
2022-09-06T17:11:40.188Z,2.10
2022-09-06T17:14:09.001Z,2.00
2022-09-06T17:16:54.217Z,2.10
2022-09-06T17:19:22.301Z,2.35
2022-09-06T17:21:49.802Z,2.10
2022-09-06T17:24:17.199Z,2.20
2022-09-06T17:26:44.607Z,2.00
2022-09-06T17:29:13.351Z,1.70
2022-09-06T17:31:40.840Z,1.83
2022-09-06T17:34:08.270Z,2.20
2022-09-06T17:36:36.390Z,2.40
2022-09-06T17:39:04.755Z,2.10
2022-09-06T17:41:34.526Z,1.92
2022-09-06T17:44:01.928Z,2.17
2022-09-06T17:46:31.113Z,2.40
2022-09-06T17:48:58.943Z,2.47
2022-09-06T17:51:28.296Z,2.35
2022-09-06T17:53:56.880Z,1.85
2022-09-06T17:56:24.339Z,2.40
2022-09-06T17:58:55.702Z,1.90
2022-09-06T18:01:23.674Z,2.15
2022-09-06T18:03:52.582Z,2.80
2022-09-06T18:06:22.607Z,2.25
2022-09-06T18:08:50.827Z,1.80
2022-09-06T18:11:19.643Z,2.00
2022-09-06T18:13:48.024Z,2.17
2022-09-06T18:16:15.882Z,2.13
2022-09-06T18:18:43.355Z,2.00
2022-09-06T18:21:13.174Z,1.90
2022-09-06T18:23:40.997Z,1.90
2022-09-06T18:26:08.861Z,2.33
2022-09-06T18:28:37.364Z,2.35
2022-09-06T18:31:05.531Z,1.90
2022-09-06T18:33:33.051Z,1.90
2022-09-06T18:36:00.551Z,2.28
2022-09-06T18:38:29.401Z,1.75
2022-09-06T18:40:57.846Z,1.80
2022-09-06T18:43:29.369Z,1.88
2022-09-06T18:46:01.236Z,2.28
2022-09-06T18:48:31.199Z,2.17
2022-09-06T18:50:59.906Z,2.00
2022-09-06T18:53:30.583Z,2.08
2022-09-06T18:55:58.218Z,1.98
2022-09-06T18:58:25.692Z,2.22
2022-09-06T19:00:53.697Z,1.95
2022-09-06T19:03:21.156Z,2.38
2022-09-06T19:05:48.619Z,4.40
2022-09-06T19:08:16.900Z,1.92
2022-09-06T19:10:45.723Z,2.00
2022-09-06T19:13:14.048Z,2.00
2022-09-06T19:15:43.248Z,2.00
2022-09-06T19:18:10.820Z,2.40
2022-09-06T19:20:38.242Z,2.03
2022-09-06T19:23:05.718Z,2.92
2022-09-06T19:25:33.144Z,1.95
2022-09-06T19:28:01.996Z,2.38
2022-09-06T19:30:29.429Z,1.92
2022-09-06T19:32:56.926Z,1.90
2022-09-06T19:35:24.523Z,2.00
2022-09-06T19:37:51.952Z,1.95
2022-09-06T19:40:19.466Z,2.38
2022-09-06T19:42:46.979Z,2.03
2022-09-06T19:45:15.812Z,2.00
2022-09-06T19:47:43.206Z,1.63
2022-09-06T19:50:10.737Z,2.10
2022-09-06T19:52:38.175Z,2.33
2022-09-06T19:55:05.970Z,2.10
2022-09-06T19:57:33.358Z,2.30
2022-09-06T20:00:01.210Z,2.20
2022-09-06T20:02:30.066Z,1.90
2022-09-06T20:04:57.586Z,1.92
2022-09-06T20:07:25.084Z,1.92
2022-09-06T20:09:52.725Z,1.80
2022-09-06T20:12:20.588Z,2.30
2022-09-06T20:14:47.978Z,1.90
2022-09-06T20:17:32.767Z,1.83
2022-09-06T20:20:02.579Z,1.90
2022-09-06T20:22:30.053Z,1.80
2022-09-06T20:24:57.439Z,1.75
2022-09-06T20:27:24.844Z,1.70
2022-09-06T20:29:52.241Z,2.00
2022-09-06T20:32:19.666Z,1.80
2022-09-06T20:34:47.080Z,1.80
2022-09-06T20:37:15.816Z,2.10
2022-09-06T20:39:43.561Z,1.77
2022-09-06T20:42:11.015Z,1.52
2022-09-06T20:44:38.485Z,1.65
2022-09-06T20:47:06.370Z,1.65
2022-09-06T20:49:33.813Z,1.70
2022-09-06T20:52:01.287Z,1.83
2022-09-06T20:54:30.263Z,1.90
2022-09-06T20:56:59.121Z,1.73
2022-09-06T20:59:26.713Z,1.70
2022-09-06T21:01:54.441Z,1.90
2022-09-06T21:04:21.975Z,1.95
2022-09-06T21:06:50.929Z,1.90
2022-09-06T21:09:18.529Z,1.73
2022-09-06T21:11:47.625Z,1.77
2022-09-06T21:14:15.100Z,1.92
2022-09-06T21:16:43.358Z,1.63
2022-09-06T21:19:12.011Z,2.20
2022-09-06T21:21:40.244Z,1.70
2022-09-06T21:24:08.280Z,1.55
2022-09-06T21:26:35.768Z,2.33
2022-09-06T21:29:05.047Z,1.48
2022-09-06T21:31:33.471Z,2.20
2022-09-06T21:34:03.089Z,1.67
2022-09-06T21:36:31.543Z,1.38
2022-09-06T21:39:00.073Z,1.60
2022-09-06T21:41:28.421Z,1.67
2022-09-06T21:43:56.802Z,1.77
2022-09-06T21:46:31.770Z,1.58
2022-09-06T21:49:01.088Z,2.13
2022-09-06T21:51:28.501Z,1.48
2022-09-06T21:53:56.929Z,1.65
2022-09-06T21:56:24.666Z,1.60
2022-09-06T21:58:52.421Z,1.48
2022-09-06T22:01:21.445Z,1.40
2022-09-06T22:03:50.355Z,1.63
2022-09-06T22:06:22.383Z,1.40
2022-09-06T22:08:50.054Z,1.23
2022-09-06T22:11:18.581Z,1.25
2022-09-06T22:13:46.702Z,1.55
2022-09-06T22:16:14.763Z,1.38
2022-09-06T22:18:42.337Z,1.60
2022-09-06T22:21:12.038Z,1.50
2022-09-06T22:23:39.824Z,1.55
2022-09-06T22:26:08.479Z,1.38
2022-09-06T22:28:36.103Z,1.63
2022-09-06T22:31:03.771Z,1.90
2022-09-06T22:33:31.619Z,1.42
2022-09-06T22:36:00.433Z,1.80
2022-09-06T22:38:29.875Z,1.52
2022-09-06T22:40:58.422Z,1.40
2022-09-06T22:43:26.429Z,1.50
2022-09-06T22:45:53.939Z,1.60
2022-09-06T22:48:21.934Z,1.38
2022-09-06T22:50:49.366Z,1.70
2022-09-06T22:53:16.799Z,1.17
2022-09-06T22:55:48.258Z,1.42
2022-09-06T22:58:15.723Z,1.52
2022-09-06T23:00:43.299Z,1.40
2022-09-06T23:03:10.979Z,1.40
2022-09-06T23:05:38.434Z,1.30
2022-09-06T23:08:05.901Z,1.30
2022-09-06T23:10:33.451Z,1.38
2022-09-06T23:13:02.562Z,1.38
2022-09-06T23:15:30.007Z,1.73
2022-09-06T23:17:57.414Z,1.70
2022-09-06T23:20:24.819Z,1.38
2022-09-06T23:22:52.244Z,1.38
2022-09-06T23:25:19.648Z,1.35
2022-09-06T23:27:47.455Z,1.10
2022-09-06T23:30:16.238Z,1.40
2022-09-06T23:32:43.658Z,1.40
2022-09-06T23:35:11.144Z,1.30
2022-09-06T23:37:38.575Z,1.33
2022-09-06T23:40:09.089Z,1.50
2022-09-06T23:42:36.815Z,1.30
2022-09-06T23:45:04.514Z,1.40
2022-09-06T23:47:33.331Z,1.50
2022-09-06T23:50:00.802Z,1.40
2022-09-06T23:52:28.195Z,1.38
2022-09-06T23:54:55.636Z,1.33
2022-09-06T23:57:23.070Z,1.08
2022-09-06T23:59:50.492Z,1.20
